AAL1860 KSAN-KSMF
Flight info
| Callsign | AAL1860 |
|---|---|
| Flight time | 1h 12m |
| Altitude | 36000 |
| Route | PADRZ2 EHF NURAY SUUTR4 |
| Aircraft | A321/M-SDE3FGHIRWY/LB1 |
Departure
| Time | 2026-04-22 03:33 |
|---|---|
| Airport | San Diego International Airport (KSAN) |
Arrival
| Time | 2026-04-22 04:45 |
|---|---|
| Airport | Sacramento International Airport (KSMF) |
| Time | Latitude | Longitude | Altitude | Speed | Heading |
|---|---|---|---|---|---|
| 2026-04-22 03:07 | 32.73337 | -117.20345 | 26 ft | 0 kts | 265° |
| 2026-04-22 03:16 | 32.73338 | -117.20330 | 26 ft | 2 kts | 265° |
| 2026-04-22 03:16 | 32.73340 | -117.20312 | 26 ft | 2 kts | 265° |
| 2026-04-22 03:17 | 32.73341 | -117.20295 | 26 ft | 2 kts | 272° |
| 2026-04-22 03:17 | 32.73336 | -117.20277 | 26 ft | 2 kts | 301° |
| 2026-04-22 03:17 | 32.73327 | -117.20264 | 26 ft | 2 kts | 324° |
| 2026-04-22 03:17 | 32.73318 | -117.20258 | 26 ft | 0 kts | 341° |
| 2026-04-22 03:18 | 32.73311 | -117.20256 | 26 ft | 0 kts | 343° |
| 2026-04-22 03:22 | 32.73312 | -117.20256 | 26 ft | 1 kts | 343° |
| 2026-04-22 03:22 | 32.73348 | -117.20270 | 26 ft | 7 kts | 342° |
| 2026-04-22 03:22 | 32.73392 | -117.20276 | 26 ft | 0 kts | 5° |
| 2026-04-22 03:23 | 32.73423 | -117.20270 | 26 ft | 8 kts | 13° |
| 2026-04-22 03:24 | 32.73493 | -117.20246 | 26 ft | 11 kts | 17° |
| 2026-04-22 03:24 | 32.73542 | -117.20180 | 26 ft | 9 kts | 93° |
| 2026-04-22 03:24 | 32.73525 | -117.20089 | 26 ft | 12 kts | 107° |
| 2026-04-22 03:24 | 32.73499 | -117.19984 | 26 ft | 14 kts | 107° |
| 2026-04-22 03:25 | 32.73471 | -117.19866 | 26 ft | 15 kts | 105° |
| 2026-04-22 03:25 | 32.73440 | -117.19737 | 26 ft | 16 kts | 106° |
| 2026-04-22 03:25 | 32.73406 | -117.19602 | 26 ft | 17 kts | 107° |
| 2026-04-22 03:25 | 32.73371 | -117.19459 | 26 ft | 18 kts | 105° |
| 2026-04-22 03:26 | 32.73336 | -117.19308 | 26 ft | 19 kts | 106° |
| 2026-04-22 03:26 | 32.73298 | -117.19154 | 26 ft | 19 kts | 107° |
| 2026-04-22 03:26 | 32.73259 | -117.18994 | 26 ft | 20 kts | 106° |
| 2026-04-22 03:26 | 32.73220 | -117.18831 | 26 ft | 20 kts | 106° |
| 2026-04-22 03:27 | 32.73179 | -117.18662 | 26 ft | 21 kts | 107° |
| 2026-04-22 03:27 | 32.73138 | -117.18492 | 26 ft | 21 kts | 106° |
| 2026-04-22 03:27 | 32.73096 | -117.18320 | 26 ft | 21 kts | 106° |
| 2026-04-22 03:27 | 32.73054 | -117.18147 | 26 ft | 22 kts | 106° |
| 2026-04-22 03:28 | 32.73015 | -117.17988 | 26 ft | 19 kts | 105° |
| 2026-04-22 03:28 | 32.72989 | -117.17879 | 26 ft | 12 kts | 106° |
| 2026-04-22 03:28 | 32.72974 | -117.17819 | 26 ft | 5 kts | 106° |
| 2026-04-22 03:28 | 32.72963 | -117.17772 | 26 ft | 5 kts | 106° |
| 2026-04-22 03:29 | 32.72963 | -117.17770 | 26 ft | 0 kts | 106° |
| 2026-04-22 03:30 | 32.72959 | -117.17754 | 26 ft | 5 kts | 106° |
| 2026-04-22 03:30 | 32.72957 | -117.17666 | 26 ft | 14 kts | 73° |
| 2026-04-22 03:30 | 32.73018 | -117.17622 | 26 ft | 9 kts | 330° |
| 2026-04-22 03:30 | 32.73042 | -117.17673 | 26 ft | 0 kts | 287° |
| 2026-04-22 03:32 | 32.73043 | -117.17677 | 26 ft | 3 kts | 287° |
| 2026-04-22 03:32 | 32.73105 | -117.17934 | 26 ft | 64 kts | 286° |
| 2026-04-22 03:32 | 32.73284 | -117.18674 | 26 ft | 121 kts | 286° |
| 2026-04-22 03:33 | 32.73561 | -117.19834 | 63 ft | 163 kts | 284° |
| 2026-04-22 03:33 | 32.73868 | -117.21112 | 585 ft | 162 kts | 285° |
| 2026-04-22 03:33 | 32.74318 | -117.22340 | 1129 ft | 167 kts | 299° |
| 2026-04-22 03:33 | 32.74959 | -117.23496 | 1715 ft | 169 kts | 303° |
| 2026-04-22 03:34 | 32.75662 | -117.24663 | 2191 ft | 179 kts | 303° |
| 2026-04-22 03:34 | 32.76418 | -117.25903 | 2592 ft | 194 kts | 303° |
| 2026-04-22 03:34 | 32.77241 | -117.27271 | 2976 ft | 211 kts | 303° |
| 2026-04-22 03:34 | 32.78117 | -117.28748 | 3350 ft | 230 kts | 303° |
| 2026-04-22 03:35 | 32.79070 | -117.30366 | 3792 ft | 247 kts | 303° |
| 2026-04-22 03:35 | 32.80081 | -117.32043 | 4459 ft | 255 kts | 304° |
| 2026-04-22 03:35 | 32.81189 | -117.33772 | 5031 ft | 268 kts | 305° |
| 2026-04-22 03:35 | 32.82335 | -117.35539 | 5760 ft | 274 kts | 305° |
| 2026-04-22 03:36 | 32.83509 | -117.37350 | 6531 ft | 278 kts | 305° |
| 2026-04-22 03:36 | 32.84694 | -117.39181 | 7257 ft | 284 kts | 305° |
| 2026-04-22 03:36 | 32.85905 | -117.41060 | 7969 ft | 289 kts | 305° |
| 2026-04-22 03:36 | 32.87141 | -117.42978 | 8669 ft | 294 kts | 305° |
| 2026-04-22 03:37 | 32.88387 | -117.44914 | 9346 ft | 299 kts | 305° |
| 2026-04-22 03:37 | 32.89650 | -117.46879 | 10004 ft | 304 kts | 306° |
| 2026-04-22 03:37 | 32.90955 | -117.48910 | 10528 ft | 314 kts | 306° |
| 2026-04-22 03:37 | 32.92332 | -117.51054 | 10840 ft | 332 kts | 306° |
| 2026-04-22 03:38 | 32.93757 | -117.53273 | 11141 ft | 349 kts | 306° |
| 2026-04-22 03:38 | 32.95273 | -117.55637 | 11463 ft | 365 kts | 307° |
| 2026-04-22 03:38 | 32.96846 | -117.58089 | 11961 ft | 374 kts | 307° |
| 2026-04-22 03:38 | 32.98421 | -117.60545 | 12622 ft | 378 kts | 307° |
| 2026-04-22 03:39 | 33.00014 | -117.63026 | 13274 ft | 381 kts | 307° |
| 2026-04-22 03:39 | 33.01633 | -117.65552 | 13905 ft | 385 kts | 306° |
| 2026-04-22 03:39 | 33.03272 | -117.68124 | 14526 ft | 389 kts | 306° |
| 2026-04-22 03:39 | 33.04906 | -117.70660 | 15123 ft | 392 kts | 308° |
| 2026-04-22 03:40 | 33.06716 | -117.73129 | 15722 ft | 396 kts | 313° |
| 2026-04-22 03:40 | 33.08698 | -117.75404 | 16304 ft | 399 kts | 319° |
| 2026-04-22 03:40 | 33.10889 | -117.77653 | 16895 ft | 402 kts | 320° |
| 2026-04-22 03:40 | 33.13091 | -117.79842 | 17462 ft | 405 kts | 320° |
| 2026-04-22 03:41 | 33.15227 | -117.81973 | 17993 ft | 408 kts | 320° |
| 2026-04-22 03:41 | 33.17417 | -117.84183 | 18523 ft | 411 kts | 320° |
| 2026-04-22 03:41 | 33.19603 | -117.86401 | 19039 ft | 414 kts | 320° |
| 2026-04-22 03:41 | 33.21835 | -117.88611 | 19551 ft | 417 kts | 320° |
| 2026-04-22 03:42 | 33.24061 | -117.90778 | 20043 ft | 420 kts | 320° |
| 2026-04-22 03:42 | 33.26333 | -117.92986 | 20532 ft | 422 kts | 320° |
| 2026-04-22 03:42 | 33.28631 | -117.95222 | 21003 ft | 425 kts | 320° |
| 2026-04-22 03:42 | 33.30926 | -117.97461 | 21466 ft | 428 kts | 320° |
| 2026-04-22 03:43 | 33.33210 | -117.99691 | 21912 ft | 430 kts | 320° |
| 2026-04-22 03:43 | 33.35542 | -118.01972 | 22350 ft | 433 kts | 320° |
| 2026-04-22 03:43 | 33.37875 | -118.04255 | 22776 ft | 435 kts | 320° |
| 2026-04-22 03:43 | 33.40205 | -118.06538 | 23186 ft | 438 kts | 320° |
| 2026-04-22 03:44 | 33.42560 | -118.08847 | 23590 ft | 440 kts | 320° |
| 2026-04-22 03:44 | 33.44949 | -118.11190 | 23988 ft | 442 kts | 320° |
| 2026-04-22 03:44 | 33.47305 | -118.13502 | 24370 ft | 445 kts | 320° |
| 2026-04-22 03:44 | 33.49709 | -118.15865 | 24745 ft | 447 kts | 319° |
| 2026-04-22 03:45 | 33.52138 | -118.18253 | 25113 ft | 449 kts | 319° |
| 2026-04-22 03:45 | 33.54549 | -118.20617 | 25465 ft | 452 kts | 320° |
| 2026-04-22 03:45 | 33.57085 | -118.22834 | 25816 ft | 454 kts | 325° |
| 2026-04-22 03:45 | 33.59764 | -118.24775 | 26158 ft | 457 kts | 331° |
| 2026-04-22 03:46 | 33.62632 | -118.26482 | 26498 ft | 460 kts | 334° |
| 2026-04-22 03:46 | 33.65550 | -118.28076 | 26827 ft | 462 kts | 335° |
| 2026-04-22 03:46 | 33.68442 | -118.29630 | 27152 ft | 463 kts | 335° |
| 2026-04-22 03:46 | 33.71394 | -118.31228 | 27474 ft | 465 kts | 335° |
| 2026-04-22 03:47 | 33.74337 | -118.32841 | 27785 ft | 467 kts | 334° |
| 2026-04-22 03:47 | 33.77325 | -118.34462 | 28085 ft | 469 kts | 335° |
| 2026-04-22 03:47 | 33.80338 | -118.35998 | 28384 ft | 471 kts | 336° |
| 2026-04-22 03:47 | 33.83358 | -118.37502 | 28751 ft | 471 kts | 336° |
| 2026-04-22 03:48 | 33.86343 | -118.38987 | 29167 ft | 469 kts | 336° |
| 2026-04-22 03:48 | 33.89376 | -118.40507 | 29577 ft | 468 kts | 336° |
| 2026-04-22 03:48 | 33.92353 | -118.42008 | 29960 ft | 467 kts | 336° |
| 2026-04-22 03:48 | 33.95369 | -118.43478 | 30327 ft | 466 kts | 338° |
| 2026-04-22 03:49 | 33.98418 | -118.44747 | 30676 ft | 466 kts | 342° |
| 2026-04-22 03:49 | 34.01509 | -118.45792 | 31008 ft | 465 kts | 345° |
| 2026-04-22 03:49 | 34.04685 | -118.46617 | 31342 ft | 465 kts | 349° |
| 2026-04-22 03:49 | 34.07902 | -118.47218 | 31664 ft | 465 kts | 352° |
| 2026-04-22 03:50 | 34.11050 | -118.47704 | 31978 ft | 464 kts | 352° |
| 2026-04-22 03:50 | 34.14279 | -118.48180 | 32275 ft | 463 kts | 352° |
| 2026-04-22 03:50 | 34.17445 | -118.48648 | 32553 ft | 463 kts | 352° |
| 2026-04-22 03:50 | 34.20670 | -118.49132 | 32840 ft | 462 kts | 352° |
| 2026-04-22 03:51 | 34.23846 | -118.49614 | 33135 ft | 461 kts | 352° |
| 2026-04-22 03:51 | 34.27023 | -118.50099 | 33431 ft | 460 kts | 352° |
| 2026-04-22 03:51 | 34.30199 | -118.50588 | 33705 ft | 459 kts | 352° |
| 2026-04-22 03:51 | 34.33327 | -118.51069 | 33953 ft | 459 kts | 352° |
| 2026-04-22 03:52 | 34.36489 | -118.51558 | 34223 ft | 458 kts | 352° |
| 2026-04-22 03:52 | 34.39653 | -118.52048 | 34453 ft | 458 kts | 352° |
| 2026-04-22 03:52 | 34.42783 | -118.52531 | 34644 ft | 459 kts | 352° |
| 2026-04-22 03:52 | 34.45940 | -118.53020 | 34818 ft | 460 kts | 352° |
| 2026-04-22 03:53 | 34.49107 | -118.53510 | 35000 ft | 461 kts | 352° |
| 2026-04-22 03:53 | 34.52285 | -118.54002 | 35191 ft | 461 kts | 352° |
| 2026-04-22 03:53 | 34.55473 | -118.54497 | 35381 ft | 462 kts | 352° |
| 2026-04-22 03:53 | 34.58661 | -118.54993 | 35553 ft | 463 kts | 352° |
| 2026-04-22 03:54 | 34.61808 | -118.55482 | 35711 ft | 463 kts | 352° |
| 2026-04-22 03:54 | 34.65017 | -118.55982 | 35887 ft | 464 kts | 352° |
| 2026-04-22 03:54 | 34.68225 | -118.56480 | 36056 ft | 465 kts | 352° |
| 2026-04-22 03:54 | 34.71426 | -118.56978 | 36081 ft | 465 kts | 352° |
| 2026-04-22 03:55 | 34.77836 | -118.57980 | 36082 ft | 465 kts | 352° |
| 2026-04-22 03:55 | 34.84264 | -118.58984 | 36085 ft | 466 kts | 352° |
| 2026-04-22 03:56 | 34.90673 | -118.59987 | 36094 ft | 466 kts | 352° |
| 2026-04-22 03:56 | 34.96994 | -118.61517 | 36101 ft | 462 kts | 343° |
| 2026-04-22 03:57 | 35.02897 | -118.64431 | 36099 ft | 457 kts | 332° |
| 2026-04-22 03:57 | 35.08203 | -118.68661 | 36105 ft | 455 kts | 321° |
| 2026-04-22 03:58 | 35.13098 | -118.73617 | 36107 ft | 455 kts | 320° |
| 2026-04-22 03:58 | 35.17939 | -118.78570 | 36104 ft | 455 kts | 320° |
| 2026-04-22 03:59 | 35.22813 | -118.83540 | 36089 ft | 456 kts | 320° |
| 2026-04-22 03:59 | 35.27704 | -118.88526 | 36085 ft | 459 kts | 321° |
| 2026-04-22 04:00 | 35.32616 | -118.93539 | 36081 ft | 461 kts | 321° |
| 2026-04-22 04:00 | 35.37514 | -118.98542 | 36083 ft | 460 kts | 322° |
| 2026-04-22 04:01 | 35.42431 | -119.03576 | 36083 ft | 459 kts | 323° |
| 2026-04-22 04:01 | 35.47508 | -119.08222 | 36083 ft | 455 kts | 330° |
| 2026-04-22 04:02 | 35.52928 | -119.12083 | 36086 ft | 452 kts | 336° |
| 2026-04-22 04:02 | 35.58652 | -119.15281 | 36092 ft | 451 kts | 340° |
| 2026-04-22 04:03 | 35.64370 | -119.18323 | 36098 ft | 451 kts | 340° |
| 2026-04-22 04:03 | 35.70092 | -119.21386 | 36102 ft | 451 kts | 340° |
| 2026-04-22 04:04 | 35.75826 | -119.24470 | 36107 ft | 451 kts | 340° |
| 2026-04-22 04:04 | 35.81563 | -119.27565 | 36109 ft | 451 kts | 340° |
| 2026-04-22 04:05 | 35.87262 | -119.30643 | 36108 ft | 451 kts | 340° |
| 2026-04-22 04:05 | 35.93001 | -119.33749 | 36108 ft | 451 kts | 340° |
| 2026-04-22 04:06 | 35.98709 | -119.36845 | 36107 ft | 450 kts | 340° |
| 2026-04-22 04:06 | 36.04465 | -119.39970 | 36103 ft | 451 kts | 340° |
| 2026-04-22 04:07 | 36.10193 | -119.43087 | 36096 ft | 451 kts | 340° |
| 2026-04-22 04:07 | 36.15934 | -119.46204 | 36094 ft | 451 kts | 340° |
| 2026-04-22 04:08 | 36.21648 | -119.49313 | 36091 ft | 451 kts | 340° |
| 2026-04-22 04:08 | 36.27403 | -119.52457 | 36088 ft | 451 kts | 340° |
| 2026-04-22 04:09 | 36.33093 | -119.55573 | 36091 ft | 451 kts | 340° |
| 2026-04-22 04:09 | 36.38828 | -119.58720 | 36089 ft | 451 kts | 340° |
| 2026-04-22 04:10 | 36.44541 | -119.61859 | 36090 ft | 450 kts | 340° |
| 2026-04-22 04:10 | 36.50254 | -119.65002 | 36090 ft | 451 kts | 340° |
| 2026-04-22 04:11 | 36.55959 | -119.68171 | 36092 ft | 451 kts | 339° |
| 2026-04-22 04:11 | 36.61554 | -119.71770 | 36099 ft | 454 kts | 332° |
| 2026-04-22 04:12 | 36.66895 | -119.75924 | 36108 ft | 454 kts | 330° |
| 2026-04-22 04:12 | 36.72208 | -119.80143 | 36111 ft | 454 kts | 330° |
| 2026-04-22 04:13 | 36.77501 | -119.84338 | 36107 ft | 454 kts | 330° |
| 2026-04-22 04:13 | 36.82849 | -119.88576 | 36103 ft | 454 kts | 330° |
| 2026-04-22 04:14 | 36.88171 | -119.92799 | 36104 ft | 454 kts | 330° |
| 2026-04-22 04:14 | 36.90812 | -119.94896 | 35957 ft | 455 kts | 330° |
| 2026-04-22 04:14 | 36.93462 | -119.97002 | 35688 ft | 452 kts | 330° |
| 2026-04-22 04:15 | 36.96122 | -119.99118 | 35335 ft | 449 kts | 330° |
| 2026-04-22 04:15 | 36.98756 | -120.01218 | 34836 ft | 448 kts | 331° |
| 2026-04-22 04:15 | 37.01382 | -120.03312 | 34222 ft | 449 kts | 331° |
| 2026-04-22 04:15 | 37.03998 | -120.05399 | 33583 ft | 449 kts | 331° |
| 2026-04-22 04:16 | 37.06646 | -120.07510 | 32908 ft | 451 kts | 331° |
| 2026-04-22 04:16 | 37.11897 | -120.11695 | 31617 ft | 451 kts | 332° |
| 2026-04-22 04:16 | 37.14557 | -120.13811 | 30920 ft | 451 kts | 332° |
| 2026-04-22 04:17 | 37.17212 | -120.15923 | 30210 ft | 452 kts | 331° |
| 2026-04-22 04:17 | 37.19838 | -120.18021 | 29490 ft | 453 kts | 331° |
| 2026-04-22 04:17 | 37.22507 | -120.20161 | 28758 ft | 454 kts | 331° |
| 2026-04-22 04:17 | 37.25132 | -120.22272 | 28290 ft | 448 kts | 331° |
| 2026-04-22 04:18 | 37.27713 | -120.24352 | 28101 ft | 434 kts | 331° |
| 2026-04-22 04:18 | 37.30251 | -120.26367 | 27696 ft | 428 kts | 332° |
| 2026-04-22 04:18 | 37.32757 | -120.28312 | 27114 ft | 426 kts | 332° |
| 2026-04-22 04:18 | 37.35273 | -120.30258 | 26564 ft | 423 kts | 332° |
| 2026-04-22 04:19 | 37.37746 | -120.32175 | 26041 ft | 420 kts | 332° |
| 2026-04-22 04:19 | 37.40229 | -120.34108 | 25519 ft | 417 kts | 332° |
| 2026-04-22 04:19 | 37.42649 | -120.35994 | 25011 ft | 413 kts | 331° |
| 2026-04-22 04:19 | 37.45077 | -120.37894 | 24505 ft | 410 kts | 330° |
| 2026-04-22 04:20 | 37.47414 | -120.39888 | 23998 ft | 408 kts | 327° |
| 2026-04-22 04:20 | 37.49656 | -120.42043 | 23479 ft | 406 kts | 325° |
| 2026-04-22 04:20 | 37.51869 | -120.44260 | 22959 ft | 403 kts | 324° |
| 2026-04-22 04:20 | 37.54039 | -120.46449 | 22447 ft | 400 kts | 324° |
| 2026-04-22 04:21 | 37.56205 | -120.48634 | 21937 ft | 397 kts | 324° |
| 2026-04-22 04:21 | 37.58350 | -120.50794 | 21427 ft | 394 kts | 324° |
| 2026-04-22 04:21 | 37.60480 | -120.52936 | 20954 ft | 390 kts | 324° |
| 2026-04-22 04:21 | 37.62562 | -120.55024 | 20935 ft | 378 kts | 324° |
| 2026-04-22 04:22 | 37.64592 | -120.57058 | 20956 ft | 379 kts | 324° |
| 2026-04-22 04:22 | 37.66662 | -120.59129 | 20597 ft | 380 kts | 324° |
| 2026-04-22 04:22 | 37.68731 | -120.61203 | 20156 ft | 378 kts | 324° |
| 2026-04-22 04:22 | 37.70767 | -120.63248 | 19721 ft | 375 kts | 324° |
| 2026-04-22 04:23 | 37.72786 | -120.65276 | 19288 ft | 372 kts | 323° |
| 2026-04-22 04:23 | 37.74758 | -120.67270 | 18967 ft | 366 kts | 323° |
| 2026-04-22 04:23 | 37.76594 | -120.69128 | 18985 ft | 367 kts | 323° |
| 2026-04-22 04:23 | 37.78574 | -120.71128 | 18581 ft | 368 kts | 323° |
| 2026-04-22 04:24 | 37.80570 | -120.73140 | 18143 ft | 365 kts | 323° |
| 2026-04-22 04:24 | 37.82542 | -120.75130 | 17715 ft | 362 kts | 323° |
| 2026-04-22 04:24 | 37.84518 | -120.77124 | 17287 ft | 359 kts | 323° |
| 2026-04-22 04:24 | 37.86444 | -120.79069 | 16922 ft | 354 kts | 323° |
| 2026-04-22 04:25 | 37.88366 | -120.81023 | 16842 ft | 355 kts | 323° |
| 2026-04-22 04:25 | 37.90285 | -120.82974 | 16406 ft | 354 kts | 323° |
| 2026-04-22 04:25 | 37.92208 | -120.84930 | 15989 ft | 351 kts | 322° |
| 2026-04-22 04:25 | 37.94091 | -120.86846 | 15576 ft | 349 kts | 322° |
| 2026-04-22 04:26 | 37.95979 | -120.88767 | 15160 ft | 346 kts | 322° |
| 2026-04-22 04:26 | 37.97841 | -120.90661 | 14748 ft | 344 kts | 322° |
| 2026-04-22 04:26 | 37.99698 | -120.92553 | 14337 ft | 341 kts | 322° |
| 2026-04-22 04:26 | 38.01553 | -120.94443 | 13926 ft | 339 kts | 322° |
| 2026-04-22 04:27 | 38.03375 | -120.96304 | 13523 ft | 336 kts | 322° |
| 2026-04-22 04:27 | 38.05188 | -120.98155 | 13120 ft | 334 kts | 322° |
| 2026-04-22 04:27 | 38.06941 | -121.00074 | 12716 ft | 332 kts | 318° |
| 2026-04-22 04:27 | 38.08559 | -121.02134 | 12316 ft | 330 kts | 313° |
| 2026-04-22 04:28 | 38.10071 | -121.04310 | 11915 ft | 328 kts | 311° |
| 2026-04-22 04:28 | 38.11543 | -121.06473 | 11519 ft | 326 kts | 312° |
| 2026-04-22 04:28 | 38.13024 | -121.08650 | 11118 ft | 324 kts | 312° |
| 2026-04-22 04:28 | 38.14489 | -121.10809 | 10720 ft | 322 kts | 312° |
| 2026-04-22 04:29 | 38.15932 | -121.12939 | 10355 ft | 318 kts | 312° |
| 2026-04-22 04:29 | 38.17368 | -121.15060 | 10214 ft | 307 kts | 312° |
| 2026-04-22 04:29 | 38.18727 | -121.17069 | 10118 ft | 294 kts | 312° |
| 2026-04-22 04:29 | 38.20035 | -121.18995 | 10007 ft | 285 kts | 312° |
| 2026-04-22 04:30 | 38.21344 | -121.20908 | 9392 ft | 296 kts | 313° |
| 2026-04-22 04:30 | 38.22818 | -121.22858 | 8349 ft | 318 kts | 316° |
| 2026-04-22 04:30 | 38.24401 | -121.24859 | 7747 ft | 321 kts | 316° |
| 2026-04-22 04:30 | 38.25947 | -121.26805 | 7621 ft | 308 kts | 316° |
| 2026-04-22 04:31 | 38.27438 | -121.28685 | 7493 ft | 297 kts | 316° |
| 2026-04-22 04:31 | 38.28877 | -121.30504 | 7364 ft | 286 kts | 316° |
| 2026-04-22 04:31 | 38.30278 | -121.32277 | 7238 ft | 282 kts | 316° |
| 2026-04-22 04:31 | 38.31678 | -121.34049 | 7112 ft | 282 kts | 316° |
| 2026-04-22 04:32 | 38.33069 | -121.35812 | 7006 ft | 281 kts | 316° |
| 2026-04-22 04:32 | 38.34445 | -121.37556 | 6999 ft | 282 kts | 316° |
| 2026-04-22 04:32 | 38.35846 | -121.39336 | 6996 ft | 282 kts | 316° |
| 2026-04-22 04:32 | 38.37214 | -121.41074 | 6994 ft | 282 kts | 316° |
| 2026-04-22 04:33 | 38.38599 | -121.42834 | 6993 ft | 281 kts | 316° |
| 2026-04-22 04:33 | 38.39852 | -121.44429 | 6993 ft | 281 kts | 316° |
| 2026-04-22 04:33 | 38.41239 | -121.46195 | 6992 ft | 281 kts | 316° |
| 2026-04-22 04:33 | 38.42628 | -121.47965 | 6992 ft | 280 kts | 316° |
| 2026-04-22 04:34 | 38.44006 | -121.49722 | 6992 ft | 280 kts | 316° |
| 2026-04-22 04:34 | 38.45362 | -121.51452 | 6992 ft | 279 kts | 316° |
| 2026-04-22 04:34 | 38.46753 | -121.53222 | 6992 ft | 279 kts | 317° |
| 2026-04-22 04:34 | 38.48195 | -121.54878 | 6942 ft | 278 kts | 322° |
| 2026-04-22 04:35 | 38.49685 | -121.56402 | 6799 ft | 276 kts | 323° |
| 2026-04-22 04:35 | 38.51201 | -121.57916 | 6644 ft | 275 kts | 323° |
| 2026-04-22 04:35 | 38.52692 | -121.59404 | 6483 ft | 274 kts | 323° |
| 2026-04-22 04:35 | 38.54190 | -121.60905 | 6304 ft | 273 kts | 323° |
| 2026-04-22 04:36 | 38.55697 | -121.62418 | 6034 ft | 273 kts | 323° |
| 2026-04-22 04:36 | 38.57185 | -121.63902 | 5733 ft | 272 kts | 326° |
| 2026-04-22 04:36 | 38.58798 | -121.65108 | 5423 ft | 269 kts | 337° |
| 2026-04-22 04:36 | 38.60553 | -121.65932 | 5115 ft | 267 kts | 343° |
| 2026-04-22 04:37 | 38.62323 | -121.66618 | 4807 ft | 265 kts | 345° |
| 2026-04-22 04:37 | 38.64092 | -121.67279 | 4500 ft | 264 kts | 345° |
| 2026-04-22 04:37 | 38.65853 | -121.67943 | 4200 ft | 262 kts | 345° |
| 2026-04-22 04:37 | 38.67590 | -121.68604 | 4005 ft | 256 kts | 345° |
| 2026-04-22 04:38 | 38.69230 | -121.69234 | 3987 ft | 242 kts | 345° |
| 2026-04-22 04:38 | 38.70793 | -121.69836 | 3977 ft | 228 kts | 345° |
| 2026-04-22 04:38 | 38.72324 | -121.70298 | 3985 ft | 225 kts | 355° |
| 2026-04-22 04:38 | 38.73873 | -121.70367 | 3830 ft | 220 kts | 7° |
| 2026-04-22 04:39 | 38.75391 | -121.70098 | 3497 ft | 222 kts | 11° |
| 2026-04-22 04:39 | 38.76918 | -121.69884 | 3200 ft | 223 kts | 6° |
| 2026-04-22 04:39 | 38.78451 | -121.69781 | 2925 ft | 222 kts | 4° |
| 2026-04-22 04:39 | 38.79992 | -121.69708 | 2648 ft | 222 kts | 4° |
| 2026-04-22 04:40 | 38.81540 | -121.69647 | 2374 ft | 221 kts | 4° |
| 2026-04-22 04:40 | 38.83012 | -121.69335 | 2206 ft | 210 kts | 29° |
| 2026-04-22 04:40 | 38.84033 | -121.68150 | 2048 ft | 192 kts | 64° |
| 2026-04-22 04:40 | 38.84313 | -121.66599 | 1996 ft | 169 kts | 89° |
| 2026-04-22 04:41 | 38.84328 | -121.65110 | 1983 ft | 166 kts | 93° |
| 2026-04-22 04:41 | 38.84304 | -121.63639 | 1982 ft | 166 kts | 94° |
| 2026-04-22 04:41 | 38.83995 | -121.62240 | 1958 ft | 164 kts | 128° |
| 2026-04-22 04:41 | 38.83079 | -121.61343 | 1993 ft | 165 kts | 149° |
| 2026-04-22 04:42 | 38.82057 | -121.60684 | 1986 ft | 165 kts | 153° |
| 2026-04-22 04:42 | 38.80967 | -121.60213 | 1978 ft | 166 kts | 166° |
| 2026-04-22 04:42 | 38.79844 | -121.60043 | 1813 ft | 158 kts | 173° |
| 2026-04-22 04:42 | 38.78791 | -121.59996 | 1584 ft | 143 kts | 176° |
| 2026-04-22 04:43 | 38.77841 | -121.60000 | 1386 ft | 135 kts | 177° |
| 2026-04-22 04:43 | 38.76902 | -121.60014 | 1223 ft | 135 kts | 177° |
| 2026-04-22 04:43 | 38.75958 | -121.60030 | 1050 ft | 135 kts | 177° |
| 2026-04-22 04:43 | 38.75033 | -121.60044 | 882 ft | 134 kts | 177° |
| 2026-04-22 04:44 | 38.74102 | -121.60049 | 715 ft | 133 kts | 177° |
| 2026-04-22 04:44 | 38.73179 | -121.60075 | 542 ft | 133 kts | 178° |
| 2026-04-22 04:44 | 38.72246 | -121.60082 | 355 ft | 132 kts | 178° |
| 2026-04-22 04:44 | 38.71336 | -121.60104 | 187 ft | 132 kts | 177° |
| 2026-04-22 04:45 | 38.70408 | -121.60114 | 37 ft | 130 kts | 177° |
| 2026-04-22 04:45 | 38.69697 | -121.60124 | 25 ft | 67 kts | 179° |
| 2026-04-22 04:45 | 38.69289 | -121.60130 | 25 ft | 51 kts | 180° |
| 2026-04-22 04:45 | 38.69078 | -121.60099 | 25 ft | 19 kts | 124° |
| 2026-04-22 04:46 | 38.69058 | -121.59969 | 26 ft | 12 kts | 92° |
| 2026-04-22 04:46 | 38.69088 | -121.59884 | 27 ft | 9 kts | 23° |
| 2026-04-22 04:46 | 38.69176 | -121.59872 | 28 ft | 15 kts | 1° |
| 2026-04-22 04:46 | 38.69288 | -121.59871 | 28 ft | 16 kts | 0° |
| 2026-04-22 04:47 | 38.69406 | -121.59869 | 28 ft | 17 kts | 0° |
| 2026-04-22 04:47 | 38.69465 | -121.59820 | 28 ft | 10 kts | 83° |
| 2026-04-22 04:47 | 38.69465 | -121.59714 | 28 ft | 13 kts | 91° |
| 2026-04-22 04:47 | 38.69463 | -121.59587 | 28 ft | 15 kts | 91° |
| 2026-04-22 04:48 | 38.69475 | -121.59483 | 29 ft | 8 kts | 45° |
| 2026-04-22 04:48 | 38.69513 | -121.59454 | 28 ft | 4 kts | 28° |
| 2026-04-22 04:48 | 38.69516 | -121.59453 | 28 ft | 0 kts | 26° |